Time;durP1;ratioP1;P1;durP2;ratioP2;P2;SDS_P1;SDS_P2;PMS_P1;PMS_P2;Temp;Humidity;BMP_temperature;BMP_pressure;BME280_temperature;BME280_humidity;BME280_pressure;Samples;Min_cycle;Max_cycle;Signal;HPM_P1;HPM_P2
2022/10/08 05:32:11;;;;;;;;;;;21.80;99.90;;;;;;5178939;23;19925;-80
2022/10/08 05:34:37;;;;;;;;;;;21.80;99.90;;;;;;5038870;28;19960;-80
2022/10/08 05:37:04;;;;;;;;;;;21.80;99.90;;;;;;5039204;28;19964;-80
2022/10/08 05:39:31;;;;;;;;;;;21.80;99.90;;;;;;5038633;28;19964;-80
2022/10/08 05:41:57;;;;;;;;;;;21.80;99.90;;;;;;5037476;28;20360;-79
2022/10/08 05:44:24;;;;;;;;;;;21.80;99.90;;;;;;5039578;28;19979;-79
2022/10/08 05:46:51;;;;;;;;;;;21.80;99.90;;;;;;5037868;28;19960;-80
2022/10/08 05:49:19;;;;;;;;;;;21.80;99.90;;;;;;5035072;28;19968;-79
2022/10/08 05:51:46;;;;;;;;;;;21.80;99.90;;;;;;5036980;28;20388;-79
2022/10/08 05:54:13;;;;;;;;;;;21.80;99.90;;;;;;5035132;28;20438;-79
2022/10/08 05:56:39;;;;;;;;;;;21.80;99.90;;;;;;5035094;28;19968;-79
2022/10/08 05:59:06;;;;;;;;;;;21.80;99.90;;;;;;5035534;28;19976;-79
2022/10/08 06:01:33;;;;;;;;;;;21.80;99.90;;;;;;5035835;28;20359;-79
2022/10/08 06:04:02;;;;;;;;;;;21.80;99.90;;;;;;5035694;28;19932;-79
2022/10/08 06:06:30;;;;;;;;;;;21.80;99.90;;;;;;5036848;28;20023;-79
2022/10/08 06:08:57;;;;;;;;;;;21.80;99.90;;;;;;5035674;28;19925;-79
2022/10/08 06:11:24;;;;;;;;;;;21.80;99.90;;;;;;5034691;28;20027;-79
2022/10/08 06:13:51;;;;;;;;;;;21.80;99.90;;;;;;5034457;28;20023;-79
2022/10/08 06:16:18;;;;;;;;;;;21.80;99.90;;;;;;5034209;28;20024;-80
2022/10/08 06:18:45;;;;;;;;;;;21.80;99.90;;;;;;5034306;28;20464;-80
2022/10/08 06:21:12;;;;;;;;;;;21.80;99.90;;;;;;5034446;28;20032;-80
2022/10/08 06:23:45;;;;;;;;;;;21.80;99.90;;;;;;5034466;28;20015;-80
2022/10/08 06:26:12;;;;;;;;;;;21.80;99.90;;;;;;5036160;28;19964;-80
2022/10/08 06:28:39;;;;;;;;;;;21.80;99.90;;;;;;5038643;28;20444;-80
2022/10/08 06:31:06;;;;;;;;;;;21.80;99.90;;;;;;5038524;28;20028;-80
2022/10/08 06:33:33;;;;;;;;;;;21.80;99.90;;;;;;5038421;28;19988;-80
2022/10/08 06:36:02;;;;;;;;;;;21.80;99.90;;;;;;5038528;28;20331;-80
2022/10/08 06:38:28;;;;;;;;;;;21.80;99.90;;;;;;5038755;28;19968;-80
2022/10/08 06:40:58;;;;;;;;;;;21.80;99.90;;;;;;5037923;28;19984;-80
2022/10/08 06:43:24;;;;;;;;;;;21.80;99.90;;;;;;5038211;28;20448;-80
2022/10/08 06:45:52;;;;;;;;;;;21.80;99.90;;;;;;5038642;28;20447;-80
2022/10/08 06:48:19;;;;;;;;;;;21.80;99.90;;;;;;5038757;28;19925;-80
2022/10/08 06:50:46;;;;;;;;;;;21.80;99.90;;;;;;5038297;28;19925;-80
2022/10/08 06:53:12;;;;;;;;;;;21.80;99.90;;;;;;5038091;28;20511;-80
2022/10/08 06:55:39;;;;;;;;;;;21.80;99.90;;;;;;5038449;28;20012;-80
2022/10/08 06:58:07;;;;;;;;;;;21.80;99.90;;;;;;5037782;28;19932;-80
2022/10/08 07:00:34;;;;;;;;;;;21.80;99.90;;;;;;5037267;28;20011;-80
2022/10/08 07:03:00;;;;;;;;;;;21.70;99.90;;;;;;5037793;28;19992;-80
2022/10/08 07:05:27;;;;;;;;;;;21.80;99.90;;;;;;5038316;28;20011;-80
2022/10/08 07:07:54;;;;;;;;;;;21.80;99.90;;;;;;5037465;28;20028;-78
2022/10/08 07:10:20;;;;;;;;;;;21.80;99.90;;;;;;5036882;28;19983;-78
2022/10/08 07:12:47;;;;;;;;;;;21.80;99.90;;;;;;5036974;28;20019;-79
2022/10/08 07:15:15;;;;;;;;;;;21.80;99.90;;;;;;5036893;28;20024;-78
2022/10/08 07:17:42;;;;;;;;;;;21.80;99.90;;;;;;5036769;28;19987;-78
2022/10/08 07:20:08;;;;;;;;;;;21.80;99.90;;;;;;5036521;28;20015;-78
2022/10/08 07:22:35;;;;;;;;;;;21.80;99.90;;;;;;5036682;28;20019;-78
2022/10/08 07:25:02;;;;;;;;;;;21.80;99.90;;;;;;5036548;28;20472;-78
2022/10/08 07:27:28;;;;;;;;;;;21.80;99.90;;;;;;5036576;28;19980;-79
2022/10/08 07:29:55;;;;;;;;;;;21.80;99.90;;;;;;5036308;28;20024;-78
2022/10/08 07:32:23;;;;;;;;;;;21.80;99.90;;;;;;5036579;28;19925;-78
2022/10/08 07:34:50;;;;;;;;;;;21.80;99.90;;;;;;5036805;28;20012;-79
2022/10/08 07:37:17;;;;;;;;;;;21.80;99.90;;;;;;5037478;28;20012;-79
2022/10/08 07:39:43;;;;;;;;;;;21.80;99.90;;;;;;5036873;28;20012;-79
2022/10/08 07:42:10;;;;;;;;;;;21.80;99.90;;;;;;5036974;28;19925;-79
2022/10/08 07:44:37;;;;;;;;;;;21.80;99.90;;;;;;5037550;28;20008;-79
2022/10/08 07:47:03;;;;;;;;;;;21.80;99.90;;;;;;5036988;28;20011;-79
2022/10/08 07:49:31;;;;;;;;;;;21.80;99.90;;;;;;5036881;28;19988;-79
2022/10/08 07:51:58;;;;;;;;;;;21.80;99.90;;;;;;5037007;28;20353;-79
2022/10/08 07:54:24;;;;;;;;;;;21.90;99.90;;;;;;5037200;28;20374;-79
2022/10/08 07:56:51;;;;;;;;;;;21.90;99.90;;;;;;5037217;28;19972;-78
2022/10/08 07:59:18;;;;;;;;;;;21.90;99.90;;;;;;5036402;28;19972;-78
2022/10/08 08:01:44;;;;;;;;;;;21.80;99.90;;;;;;5036839;28;20019;-78
2022/10/08 08:04:11;;;;;;;;;;;21.90;99.90;;;;;;5037901;28;20007;-79
2022/10/08 08:06:41;;;;;;;;;;;21.90;99.90;;;;;;5037092;28;20361;-79
2022/10/08 08:09:07;;;;;;;;;;;21.90;99.90;;;;;;5036142;28;20361;-79
2022/10/08 08:11:34;;;;;;;;;;;21.90;99.90;;;;;;5035746;28;20012;-77
2022/10/08 08:14:01;;;;;;;;;;;21.90;99.90;;;;;;5034901;28;20329;-77
2022/10/08 08:16:28;;;;;;;;;;;21.90;99.90;;;;;;5034737;28;20312;-77
2022/10/08 08:18:55;;;;;;;;;;;21.90;99.90;;;;;;5036516;28;20027;-79
2022/10/08 08:21:24;;;;;;;;;;;22.00;99.90;;;;;;5036970;28;20471;-78
2022/10/08 08:23:52;;;;;;;;;;;22.00;99.90;;;;;;5036968;28;20337;-78
2022/10/08 08:26:20;;;;;;;;;;;21.90;99.90;;;;;;5037032;28;19965;-79
2022/10/08 08:28:50;;;;;;;;;;;21.90;99.90;;;;;;5036153;28;20352;-78
2022/10/08 08:31:17;;;;;;;;;;;21.90;99.90;;;;;;5035859;28;20016;-78
2022/10/08 08:33:49;;;;;;;;;;;21.90;99.90;;;;;;5036163;28;20027;-79
2022/10/08 08:36:16;;;;;;;;;;;21.90;99.90;;;;;;5036183;28;19925;-78
2022/10/08 08:38:43;;;;;;;;;;;22.00;99.90;;;;;;5036794;28;19976;-77
2022/10/08 08:41:19;;;;;;;;;;;22.00;99.90;;;;;;5036219;28;20015;-78
2022/10/08 08:43:46;;;;;;;;;;;22.00;99.90;;;;;;5036934;28;19925;-79
2022/10/08 08:46:13;;;;;;;;;;;22.00;99.90;;;;;;5037257;28;20021;-79
2022/10/08 08:48:43;;;;;;;;;;;22.00;99.90;;;;;;5036065;28;20016;-79
2022/10/08 08:51:10;;;;;;;;;;;22.00;99.90;;;;;;5036985;28;19972;-79
2022/10/08 08:53:36;;;;;;;;;;;22.00;99.90;;;;;;5036804;28;20288;-79
2022/10/08 08:56:04;;;;;;;;;;;22.00;99.90;;;;;;5036352;28;19960;-80
2022/10/08 08:58:37;;;;;;;;;;;22.00;99.90;;;;;;5036560;28;20008;-80
2022/10/08 09:01:12;;;;;;;;;;;22.00;99.90;;;;;;5036010;28;19931;-79
2022/10/08 09:03:42;;;;;;;;;;;21.90;99.90;;;;;;5035386;28;20028;-80
2022/10/08 09:06:11;;;;;;;;;;;22.00;99.90;;;;;;5036434;28;19925;-79
2022/10/08 09:08:40;;;;;;;;;;;22.00;99.90;;;;;;5039049;28;19955;-79
2022/10/08 09:11:12;;;;;;;;;;;22.00;99.90;;;;;;5036501;28;20024;-78
2022/10/08 09:13:44;;;;;;;;;;;22.00;99.90;;;;;;5036059;28;20020;-77
2022/10/08 09:16:12;;;;;;;;;;;21.90;99.90;;;;;;5036158;28;19960;-77
2022/10/08 09:18:39;;;;;;;;;;;22.00;99.90;;;;;;5035628;28;20020;-78
2022/10/08 09:21:06;;;;;;;;;;;22.00;99.90;;;;;;5035546;28;19936;-77
2022/10/08 09:23:33;;;;;;;;;;;22.00;99.90;;;;;;5035758;28;20371;-77
2022/10/08 09:26:01;;;;;;;;;;;22.00;99.90;;;;;;5036235;28;19932;-78
2022/10/08 09:28:39;;;;;;;;;;;22.00;99.90;;;;;;5036343;28;19925;-78
2022/10/08 09:31:19;;;;;;;;;;;22.00;99.90;;;;;;5036347;28;20367;-83
2022/10/08 09:33:52;;;;;;;;;;;22.00;99.90;;;;;;5036248;28;19929;-82
2022/10/08 09:36:28;;;;;;;;;;;22.00;99.90;;;;;;5035750;28;20015;-82
2022/10/08 09:38:57;;;;;;;;;;;22.00;99.90;;;;;;5036105;28;20004;-82
2022/10/08 09:41:27;;;;;;;;;;;22.00;99.90;;;;;;5035090;28;20451;-82
2022/10/08 09:44:04;;;;;;;;;;;22.00;99.90;;;;;;5035405;28;19929;-82
2022/10/08 09:46:33;;;;;;;;;;;22.00;99.90;;;;;;5035816;28;20384;-79
2022/10/08 09:49:19;;;;;;;;;;;22.00;99.90;;;;;;5035398;28;20024;-80
2022/10/08 09:51:46;;;;;;;;;;;22.00;99.90;;;;;;5035182;28;19933;-82
2022/10/08 09:54:16;;;;;;;;;;;22.00;99.90;;;;;;5035471;28;19956;-83
2022/10/08 09:56:51;;;;;;;;;;;22.00;99.90;;;;;;5036094;28;19932;-81
2022/10/08 09:59:20;;;;;;;;;;;22.00;99.90;;;;;;5035662;28;19971;-85
2022/10/08 10:01:48;;;;;;;;;;;22.00;99.90;;;;;;5039496;28;19980;-81
2022/10/08 10:04:19;;;;;;;;;;;22.00;99.90;;;;;;5039155;28;19925;-80
2022/10/08 10:06:47;;;;;;;;;;;22.00;99.90;;;;;;5039104;28;19960;-80
2022/10/08 10:09:23;;;;;;;;;;;22.00;99.90;;;;;;5039168;28;19926;-81
2022/10/08 10:11:52;;;;;;;;;;;22.10;99.90;;;;;;5038989;28;19948;-80
2022/10/08 10:14:21;;;;;;;;;;;22.10;99.90;;;;;;5039073;28;19993;-80
2022/10/08 10:16:50;;;;;;;;;;;22.10;99.90;;;;;;5039387;28;19925;-81
2022/10/08 10:19:19;;;;;;;;;;;22.10;99.90;;;;;;5038668;28;20015;-80
2022/10/08 10:21:51;;;;;;;;;;;22.10;99.90;;;;;;5038539;28;20391;-80
2022/10/08 10:24:39;;;;;;;;;;;22.10;99.90;;;;;;5038950;28;19931;-83
2022/10/08 10:27:07;;;;;;;;;;;22.10;99.90;;;;;;5034114;28;19925;-82
2022/10/08 10:29:40;;;;;;;;;;;22.10;99.90;;;;;;5039475;28;19971;-82
2022/10/08 10:32:12;;;;;;;;;;;22.10;99.90;;;;;;5038879;28;19929;-82
2022/10/08 10:34:39;;;;;;;;;;;22.10;99.90;;;;;;5038957;28;19925;-82
2022/10/08 10:37:07;;;;;;;;;;;22.10;99.90;;;;;;5039340;28;20355;-82
2022/10/08 10:39:39;;;;;;;;;;;22.10;99.90;;;;;;5039035;28;20008;-83
2022/10/08 10:42:10;;;;;;;;;;;22.10;99.90;;;;;;5039784;28;20020;-83
2022/10/08 10:44:47;;;;;;;;;;;22.00;99.90;;;;;;5039220;28;20443;-82
2022/10/08 10:47:15;;;;;;;;;;;22.00;99.90;;;;;;5039153;28;19987;-83
2022/10/08 10:49:43;;;;;;;;;;;22.00;99.90;;;;;;5039350;28;20007;-83
2022/10/08 10:52:20;;;;;;;;;;;22.00;99.90;;;;;;5039410;28;20007;-83
2022/10/08 10:55:02;;;;;;;;;;;22.00;99.90;;;;;;5039689;28;19972;-84
2022/10/08 10:57:34;;;;;;;;;;;21.90;99.90;;;;;;5039656;28;20379;-84
2022/10/08 11:00:05;;;;;;;;;;;21.90;99.90;;;;;;5039093;28;19969;-84
2022/10/08 11:02:34;;;;;;;;;;;21.90;99.90;;;;;;5039374;28;19948;-85
2022/10/08 11:05:06;;;;;;;;;;;21.90;99.90;;;;;;5039091;28;20020;-82
2022/10/08 11:07:45;;;;;;;;;;;21.90;99.90;;;;;;5039621;28;20348;-84
2022/10/08 11:10:18;;;;;;;;;;;21.90;99.90;;;;;;5038328;28;19987;-80
2022/10/08 11:12:51;;;;;;;;;;;22.00;99.90;;;;;;5038972;28;19925;-80
2022/10/08 11:15:22;;;;;;;;;;;22.00;99.90;;;;;;5038715;28;19981;-80
2022/10/08 11:17:59;;;;;;;;;;;21.90;99.90;;;;;;5039792;28;20032;-80
2022/10/08 11:20:38;;;;;;;;;;;21.90;99.90;;;;;;5040059;28;19979;-79
2022/10/08 11:23:10;;;;;;;;;;;21.90;99.90;;;;;;5043635;28;19957;-80
2022/10/08 11:25:38;;;;;;;;;;;22.00;99.90;;;;;;5043553;28;20400;-80
2022/10/08 11:28:13;;;;;;;;;;;21.90;99.90;;;;;;5041358;28;19971;-80
2022/10/08 11:30:47;;;;;;;;;;;22.00;99.90;;;;;;5040924;28;19968;-79
2022/10/08 11:33:15;;;;;;;;;;;22.00;99.90;;;;;;5041013;28;19999;-80
2022/10/08 11:35:46;;;;;;;;;;;22.00;99.90;;;;;;5041422;28;19925;-79
2022/10/08 11:38:18;;;;;;;;;;;22.00;99.90;;;;;;5041056;28;19925;-80
2022/10/08 11:40:47;;;;;;;;;;;22.00;99.90;;;;;;5042123;28;19925;-80
2022/10/08 11:43:18;;;;;;;;;;;22.00;99.90;;;;;;5042038;28;19932;-80
2022/10/08 11:45:45;;;;;;;;;;;22.00;99.90;;;;;;5041885;28;19973;-80
2022/10/08 11:48:33;;;;;;;;;;;22.00;99.90;;;;;;5042767;28;19925;-80
2022/10/08 11:51:18;;;;;;;;;;;22.00;99.90;;;;;;5041288;28;19925;-80
2022/10/08 11:53:56;;;;;;;;;;;22.00;99.90;;;;;;5041421;28;19965;-80
2022/10/08 11:56:23;;;;;;;;;;;22.00;99.90;;;;;;5042483;28;20284;-80
2022/10/08 11:58:52;;;;;;;;;;;22.00;99.90;;;;;;5042219;28;19983;-80
2022/10/08 12:01:18;;;;;;;;;;;22.00;99.90;;;;;;5041599;28;19925;-80
2022/10/08 12:03:59;;;;;;;;;;;22.10;99.90;;;;;;5042052;28;19975;-80
2022/10/08 12:06:28;;;;;;;;;;;22.00;99.90;;;;;;5041949;28;19956;-80
2022/10/08 12:08:55;;;;;;;;;;;22.10;99.90;;;;;;5041181;28;20008;-81
2022/10/08 12:11:40;;;;;;;;;;;22.10;99.90;;;;;;5038313;28;19979;-81
2022/10/08 12:14:26;;;;;;;;;;;22.10;99.90;;;;;;5038653;28;19976;-80
2022/10/08 12:17:09;;;;;;;;;;;22.00;99.90;;;;;;5037862;28;20036;-81
2022/10/08 12:19:44;;;;;;;;;;;22.00;99.90;;;;;;5038165;28;19925;-81
2022/10/08 12:22:26;;;;;;;;;;;22.00;99.90;;;;;;5037941;28;20444;-80
2022/10/08 12:24:56;;;;;;;;;;;22.00;99.90;;;;;;5038449;28;19963;-80
2022/10/08 12:27:33;;;;;;;;;;;22.10;99.90;;;;;;5039389;28;20407;-80
2022/10/08 12:30:00;;;;;;;;;;;22.10;99.90;;;;;;5040655;28;19975;-84
2022/10/08 12:32:28;;;;;;;;;;;22.10;99.90;;;;;;5038745;28;19957;-83
2022/10/08 12:34:56;;;;;;;;;;;22.10;99.90;;;;;;5039365;28;19983;-84
2022/10/08 12:37:41;;;;;;;;;;;22.00;99.90;;;;;;5038682;28;19956;-82
2022/10/08 12:40:12;;;;;;;;;;;22.10;99.90;;;;;;5038278;28;19976;-82
2022/10/08 12:42:40;;;;;;;;;;;22.00;99.90;;;;;;5038360;28;20020;-82
2022/10/08 12:45:12;;;;;;;;;;;22.10;99.90;;;;;;5037973;28;19964;-82
2022/10/08 12:47:43;;;;;;;;;;;22.00;99.90;;;;;;5036980;28;20401;-82
2022/10/08 12:50:28;;;;;;;;;;;22.00;99.90;;;;;;5036464;28;20020;-81
2022/10/08 12:52:54;;;;;;;;;;;22.00;99.90;;;;;;5036669;28;20020;-81
2022/10/08 12:55:23;;;;;;;;;;;22.00;99.90;;;;;;5036472;28;20033;-81
2022/10/08 12:57:50;;;;;;;;;;;22.00;99.90;;;;;;5037000;28;19976;-81
2022/10/08 13:00:21;;;;;;;;;;;22.00;99.90;;;;;;5037002;28;20015;-81
2022/10/08 13:02:58;;;;;;;;;;;22.00;99.90;;;;;;5036893;28;20020;-82
2022/10/08 13:05:26;;;;;;;;;;;22.00;99.90;;;;;;5036665;28;19925;-80
2022/10/08 13:07:53;;;;;;;;;;;22.00;99.90;;;;;;5036312;28;20015;-81
2022/10/08 13:10:26;;;;;;;;;;;21.90;99.90;;;;;;5036495;28;19968;-81
2022/10/08 13:12:59;;;;;;;;;;;21.90;99.90;;;;;;5038437;28;19957;-82
2022/10/08 13:15:26;;;;;;;;;;;21.90;99.90;;;;;;5038425;28;19972;-81
2022/10/08 13:17:54;;;;;;;;;;;21.90;99.90;;;;;;5037494;28;19988;-82
2022/10/08 13:20:21;;;;;;;;;;;21.90;99.90;;;;;;5036968;28;20024;-82
2022/10/08 13:22:50;;;;;;;;;;;21.90;99.90;;;;;;5038319;28;20369;-81
2022/10/08 13:25:34;;;;;;;;;;;21.90;99.90;;;;;;5038394;28;19980;-81
2022/10/08 13:28:08;;;;;;;;;;;21.90;99.90;;;;;;5038053;28;19972;-81
2022/10/08 13:30:34;;;;;;;;;;;21.90;99.90;;;;;;5038078;28;19988;-82
2022/10/08 13:33:02;;;;;;;;;;;21.90;99.90;;;;;;5037670;28;20418;-83
2022/10/08 13:35:29;;;;;;;;;;;21.90;99.90;;;;;;5040003;28;20371;-83
2022/10/08 13:37:57;;;;;;;;;;;21.90;99.90;;;;;;5039734;28;19965;-83
2022/10/08 13:40:24;;;;;;;;;;;21.90;99.90;;;;;;5039945;28;20428;-83
2022/10/08 13:42:52;;;;;;;;;;;21.90;99.90;;;;;;5040447;28;20024;-82
2022/10/08 13:45:20;;;;;;;;;;;21.90;99.90;;;;;;5040316;28;20023;-83
2022/10/08 13:47:47;;;;;;;;;;;21.90;99.90;;;;;;5040298;28;20015;-84
2022/10/08 13:50:14;;;;;;;;;;;21.80;99.90;;;;;;5041175;28;20393;-84
2022/10/08 13:52:42;;;;;;;;;;;21.80;99.90;;;;;;5041461;28;19932;-84
2022/10/08 13:55:17;;;;;;;;;;;21.80;99.90;;;;;;5041573;28;20028;-83
2022/10/08 13:57:44;;;;;;;;;;;21.90;99.90;;;;;;5041178;28;20473;-83
2022/10/08 14:00:12;;;;;;;;;;;21.90;99.90;;;;;;5041352;28;19964;-83
2022/10/08 14:02:39;;;;;;;;;;;21.90;99.90;;;;;;5041096;28;19980;-83
2022/10/08 14:05:06;;;;;;;;;;;21.90;99.90;;;;;;5041252;28;19979;-81
2022/10/08 14:07:34;;;;;;;;;;;21.90;99.90;;;;;;5040179;28;19979;-81
2022/10/08 14:10:01;;;;;;;;;;;21.80;99.90;;;;;;5039915;28;19979;-81
2022/10/08 14:12:32;;;;;;;;;;;21.90;99.90;;;;;;5039802;28;19972;-81
2022/10/08 14:14:59;;;;;;;;;;;21.90;99.90;;;;;;5041301;28;19925;-81
2022/10/08 14:17:26;;;;;;;;;;;21.90;99.90;;;;;;5040471;28;19991;-81
2022/10/08 14:19:54;;;;;;;;;;;21.90;99.90;;;;;;5039417;28;20427;-80
2022/10/08 14:22:20;;;;;;;;;;;21.90;99.90;;;;;;5039206;28;19975;-80
2022/10/08 14:24:47;;;;;;;;;;;21.90;99.90;;;;;;5040462;28;19991;-80
2022/10/08 14:27:14;;;;;;;;;;;21.90;99.90;;;;;;5040866;28;19987;-80
2022/10/08 14:29:42;;;;;;;;;;;21.90;99.90;;;;;;5042846;28;19979;-80
2022/10/08 14:32:09;;;;;;;;;;;21.90;99.90;;;;;;5042657;28;20353;-79
2022/10/08 14:34:36;;;;;;;;;;;21.90;99.90;;;;;;5040310;28;19972;-79
2022/10/08 14:37:04;;;;;;;;;;;21.90;99.90;;;;;;5040008;28;19980;-79
2022/10/08 14:39:31;;;;;;;;;;;21.90;99.90;;;;;;5040918;28;19925;-79
2022/10/08 14:41:58;;;;;;;;;;;21.80;99.90;;;;;;5040699;28;20373;-79
2022/10/08 14:44:25;;;;;;;;;;;21.80;99.90;;;;;;5040532;28;19925;-79
2022/10/08 14:46:53;;;;;;;;;;;21.80;99.90;;;;;;5039665;28;19925;-79
2022/10/08 14:49:20;;;;;;;;;;;21.80;99.90;;;;;;5040426;28;19992;-79
2022/10/08 14:51:47;;;;;;;;;;;21.80;99.90;;;;;;5041426;28;19925;-79
2022/10/08 14:54:14;;;;;;;;;;;21.80;99.90;;;;;;5040721;28;20019;-79
2022/10/08 14:56:41;;;;;;;;;;;21.80;99.90;;;;;;5040107;28;19931;-79
2022/10/08 14:59:08;;;;;;;;;;;21.80;99.90;;;;;;5042170;28;20015;-81
2022/10/08 15:01:36;;;;;;;;;;;21.80;99.90;;;;;;5045733;28;19928;-79
2022/10/08 15:04:04;;;;;;;;;;;21.80;99.90;;;;;;5040625;28;19980;-79
2022/10/08 15:06:31;;;;;;;;;;;21.80;99.90;;;;;;5042352;28;19925;-79
2022/10/08 15:08:58;;;;;;;;;;;21.80;99.90;;;;;;5039922;28;19925;-79
2022/10/08 15:11:25;;;;;;;;;;;21.80;99.90;;;;;;5040475;28;19948;-79
2022/10/08 15:13:52;;;;;;;;;;;21.80;99.90;;;;;;5039989;28;19976;-79
2022/10/08 15:16:19;;;;;;;;;;;21.70;99.90;;;;;;5040879;28;19948;-79
2022/10/08 15:18:45;;;;;;;;;;;21.80;99.90;;;;;;5039201;28;19925;-79
2022/10/08 15:21:14;;;;;;;;;;;21.80;99.90;;;;;;5038766;28;19971;-79
2022/10/08 15:23:43;;;;;;;;;;;21.80;99.90;;;;;;5038434;28;19976;-79
2022/10/08 15:26:13;;;;;;;;;;;21.80;99.90;;;;;;5038324;28;20035;-79
2022/10/08 15:28:40;;;;;;;;;;;21.80;99.90;;;;;;5038432;28;19925;-79
2022/10/08 15:31:08;;;;;;;;;;;21.80;99.90;;;;;;5038188;28;19933;-79
2022/10/08 15:33:38;;;;;;;;;;;21.80;99.90;;;;;;5039235;28;19976;-80
2022/10/08 15:36:15;;;;;;;;;;;21.70;99.90;;;;;;5039728;28;19932;-82
2022/10/08 15:38:44;;;;;;;;;;;21.70;99.90;;;;;;5039758;28;19940;-82
2022/10/08 15:41:11;;;;;;;;;;;21.70;99.90;;;;;;5040249;28;20292;-81
2022/10/08 15:43:38;;;;;;;;;;;21.70;99.90;;;;;;5039935;28;19925;-82
2022/10/08 15:46:09;;;;;;;;;;;21.70;99.90;;;;;;5041569;28;19997;-82
2022/10/08 15:48:36;;;;;;;;;;;21.70;99.90;;;;;;5040448;28;19925;-81
2022/10/08 15:51:04;;;;;;;;;;;21.70;99.90;;;;;;5040201;28;19925;-80
2022/10/08 15:53:32;;;;;;;;;;;21.70;99.90;;;;;;5041158;28;19929;-81
2022/10/08 15:56:01;;;;;;;;;;;21.70;99.90;;;;;;5044580;28;19925;-80
2022/10/08 15:58:31;;;;;;;;;;;21.70;99.90;;;;;;5047722;28;19940;-82
2022/10/08 16:01:03;;;;;;;;;;;21.70;99.90;;;;;;5050055;28;19925;-82
2022/10/08 16:03:33;;;;;;;;;;;21.70;99.90;;;;;;5045075;28;19925;-82
2022/10/08 16:06:00;;;;;;;;;;;21.70;99.90;;;;;;5041317;28;20027;-82
2022/10/08 16:08:29;;;;;;;;;;;21.70;99.90;;;;;;5039876;28;19960;-81
2022/10/08 16:10:56;;;;;;;;;;;21.70;99.90;;;;;;5039825;28;19931;-81
2022/10/08 16:13:24;;;;;;;;;;;21.70;99.90;;;;;;5040003;28;19929;-81
2022/10/08 16:15:52;;;;;;;;;;;21.70;99.90;;;;;;5040092;28;20016;-81
2022/10/08 16:18:19;;;;;;;;;;;21.70;99.90;;;;;;5040065;28;19924;-82
2022/10/08 16:20:45;;;;;;;;;;;21.70;99.90;;;;;;5037786;28;19960;-81
2022/10/08 16:23:12;;;;;;;;;;;21.70;99.90;;;;;;5038241;28;19975;-81
2022/10/08 16:25:39;;;;;;;;;;;21.70;99.90;;;;;;5038210;28;19933;-81
2022/10/08 16:28:05;;;;;;;;;;;21.70;99.90;;;;;;5038517;28;19967;-82
2022/10/08 16:30:35;;;;;;;;;;;21.70;99.90;;;;;;5038477;28;20369;-81
2022/10/08 16:33:02;;;;;;;;;;;21.70;99.90;;;;;;5037972;28;19936;-81
2022/10/08 16:35:28;;;;;;;;;;;21.70;99.90;;;;;;5038451;28;19952;-81
2022/10/08 16:37:55;;;;;;;;;;;21.70;99.90;;;;;;5038483;28;20016;-81
2022/10/08 16:40:22;;;;;;;;;;;21.70;99.90;;;;;;5038264;28;20347;-82
2022/10/08 16:42:48;;;;;;;;;;;21.70;99.90;;;;;;5038375;28;19967;-81
2022/10/08 16:45:15;;;;;;;;;;;21.70;99.90;;;;;;5038457;28;19960;-81
2022/10/08 16:47:43;;;;;;;;;;;21.70;99.90;;;;;;5038160;28;19971;-81
2022/10/08 16:50:10;;;;;;;;;;;21.70;99.90;;;;;;5037933;28;20016;-82
2022/10/08 16:52:36;;;;;;;;;;;21.70;99.90;;;;;;5038383;28;20019;-81
2022/10/08 16:55:03;;;;;;;;;;;21.70;99.90;;;;;;5038981;28;20023;-81
2022/10/08 16:57:31;;;;;;;;;;;21.70;99.90;;;;;;5039225;28;19964;-82
2022/10/08 16:59:58;;;;;;;;;;;21.70;99.90;;;;;;5039169;28;19925;-80
2022/10/08 17:02:25;;;;;;;;;;;21.70;99.90;;;;;;5039251;28;19937;-81
2022/10/08 17:04:53;;;;;;;;;;;21.70;99.90;;;;;;5038428;28;20020;-81
2022/10/08 17:07:20;;;;;;;;;;;21.70;99.90;;;;;;5037798;28;20012;-82
2022/10/08 17:09:46;;;;;;;;;;;21.70;99.90;;;;;;5035769;28;20420;-82
2022/10/08 17:12:13;;;;;;;;;;;21.70;99.90;;;;;;5035990;28;19968;-82
2022/10/08 17:14:40;;;;;;;;;;;21.80;99.90;;;;;;5036659;28;19967;-82
2022/10/08 17:17:06;;;;;;;;;;;21.80;99.90;;;;;;5037561;28;19964;-83
2022/10/08 17:19:33;;;;;;;;;;;21.80;99.90;;;;;;5037025;28;19968;-83
2022/10/08 17:22:03;;;;;;;;;;;21.80;99.90;;;;;;5036970;28;20339;-83
2022/10/08 17:24:30;;;;;;;;;;;21.80;99.90;;;;;;5038100;28;20336;-82
2022/10/08 17:26:56;;;;;;;;;;;21.80;99.90;;;;;;5038040;28;19929;-82
2022/10/08 17:29:23;;;;;;;;;;;21.80;99.90;;;;;;5038443;28;19925;-82
2022/10/08 17:31:50;;;;;;;;;;;21.80;99.90;;;;;;5037909;28;19973;-83
2022/10/08 17:34:16;;;;;;;;;;;21.80;99.90;;;;;;5038819;28;19967;-82
2022/10/08 17:36:43;;;;;;;;;;;21.80;99.90;;;;;;5038090;28;20016;-82
2022/10/08 17:39:12;;;;;;;;;;;21.80;99.90;;;;;;5038492;28;19975;-81
2022/10/08 17:41:40;;;;;;;;;;;21.80;99.90;;;;;;5037741;28;20392;-81
2022/10/08 17:44:07;;;;;;;;;;;21.80;99.90;;;;;;5037290;28;19968;-82
2022/10/08 17:46:35;;;;;;;;;;;21.80;99.90;;;;;;5037172;28;20008;-81
2022/10/08 17:49:01;;;;;;;;;;;21.80;99.90;;;;;;5036899;28;19964;-82
2022/10/08 17:51:29;;;;;;;;;;;21.80;99.90;;;;;;5037342;28;19924;-82
2022/10/08 17:53:56;;;;;;;;;;;21.80;99.90;;;;;;5037550;28;19972;-82
2022/10/08 17:56:25;;;;;;;;;;;21.80;99.90;;;;;;5036263;28;19979;-82
2022/10/08 17:58:52;;;;;;;;;;;21.80;99.90;;;;;;5037010;28;19988;-82
2022/10/08 18:01:19;;;;;;;;;;;21.80;99.90;;;;;;5037215;28;19968;-81
2022/10/08 18:03:50;;;;;;;;;;;21.90;99.90;;;;;;5037249;28;20008;-82
2022/10/08 18:06:17;;;;;;;;;;;21.90;99.90;;;;;;5036787;28;19980;-82
2022/10/08 18:08:43;;;;;;;;;;;21.90;99.90;;;;;;5036427;28;19981;-82
2022/10/08 18:11:11;;;;;;;;;;;21.90;99.90;;;;;;5035732;28;20473;-78
2022/10/08 18:13:39;;;;;;;;;;;21.90;99.90;;;;;;5035154;28;19964;-78
2022/10/08 18:16:07;;;;;;;;;;;21.90;99.90;;;;;;5035458;28;19980;-78
2022/10/08 18:18:33;;;;;;;;;;;21.90;99.90;;;;;;5035553;28;20006;-78
2022/10/08 18:21:01;;;;;;;;;;;21.90;99.90;;;;;;5035696;28;20412;-77
2022/10/08 18:23:27;;;;;;;;;;;21.90;99.90;;;;;;5038356;28;20377;-77
2022/10/08 18:25:54;;;;;;;;;;;21.90;99.90;;;;;;5038819;28;20012;-77
2022/10/08 18:28:21;;;;;;;;;;;21.80;99.90;;;;;;5038666;28;19972;-77
2022/10/08 18:30:49;;;;;;;;;;;21.90;99.90;;;;;;5037046;28;19933;-77
2022/10/08 18:33:16;;;;;;;;;;;21.90;99.90;;;;;;5037044;28;20015;-78
2022/10/08 18:35:43;;;;;;;;;;;21.90;99.90;;;;;;5037206;28;20020;-77
2022/10/08 18:38:09;;;;;;;;;;;21.90;99.90;;;;;;5036531;28;20023;-77
2022/10/08 18:40:36;;;;;;;;;;;21.90;99.90;;;;;;5036420;28;19931;-77
2022/10/08 18:43:02;;;;;;;;;;;21.90;99.90;;;;;;5036486;28;20419;-77
2022/10/08 18:45:29;;;;;;;;;;;21.90;99.90;;;;;;5036402;28;20365;-77
2022/10/08 18:47:58;;;;;;;;;;;21.90;99.90;;;;;;5036701;28;19925;-77
2022/10/08 18:50:24;;;;;;;;;;;21.90;99.90;;;;;;5036610;28;19932;-77
2022/10/08 18:52:51;;;;;;;;;;;21.80;99.90;;;;;;5036310;28;19972;-77
2022/10/08 18:55:18;;;;;;;;;;;21.80;99.90;;;;;;5036285;28;20019;-77
2022/10/08 18:57:44;;;;;;;;;;;21.80;99.90;;;;;;5036281;28;20467;-77
2022/10/08 19:00:11;;;;;;;;;;;21.80;99.90;;;;;;5036428;28;20357;-77
2022/10/08 19:02:38;;;;;;;;;;;21.80;99.90;;;;;;5036442;28;20019;-77
2022/10/08 19:05:07;;;;;;;;;;;21.80;99.90;;;;;;5036298;28;20095;-77
2022/10/08 19:07:33;;;;;;;;;;;21.80;99.90;;;;;;5036356;28;20017;-77
2022/10/08 19:10:00;;;;;;;;;;;21.80;99.90;;;;;;5036255;28;20021;-77
2022/10/08 19:12:27;;;;;;;;;;;21.70;99.90;;;;;;5036315;28;20012;-77
2022/10/08 19:14:53;;;;;;;;;;;21.70;99.90;;;;;;5036133;28;20020;-77
2022/10/08 19:17:20;;;;;;;;;;;21.70;99.90;;;;;;5036331;28;19969;-77
2022/10/08 19:19:47;;;;;;;;;;;21.70;99.90;;;;;;5036144;28;20019;-77
2022/10/08 19:22:15;;;;;;;;;;;21.70;99.90;;;;;;5036019;28;20015;-77
2022/10/08 19:24:41;;;;;;;;;;;21.70;99.90;;;;;;5035623;28;20020;-77
2022/10/08 19:27:08;;;;;;;;;;;21.70;99.90;;;;;;5036010;28;19925;-77
2022/10/08 19:29:35;;;;;;;;;;;21.70;99.90;;;;;;5035964;28;20015;-77
2022/10/08 19:32:02;;;;;;;;;;;21.70;99.90;;;;;;5035625;28;19983;-77
2022/10/08 19:34:28;;;;;;;;;;;21.70;99.90;;;;;;5035671;28;19925;-77
2022/10/08 19:36:55;;;;;;;;;;;21.70;99.90;;;;;;5036100;28;19984;-78
2022/10/08 19:39:24;;;;;;;;;;;21.70;99.90;;;;;;5037925;28;19964;-78
2022/10/08 19:41:51;;;;;;;;;;;21.70;99.90;;;;;;5038191;28;19968;-78
2022/10/08 19:44:18;;;;;;;;;;;21.70;99.90;;;;;;5037206;28;20012;-78
2022/10/08 19:46:45;;;;;;;;;;;21.70;99.90;;;;;;5036122;28;19975;-78
2022/10/08 19:49:12;;;;;;;;;;;21.70;99.90;;;;;;5036371;28;19983;-77
2022/10/08 19:51:40;;;;;;;;;;;21.70;99.90;;;;;;5037614;28;19932;-78
2022/10/08 19:54:06;;;;;;;;;;;21.70;99.90;;;;;;5037760;28;19964;-79
2022/10/08 19:56:35;;;;;;;;;;;21.80;99.90;;;;;;5036246;28;20364;-78